createdAt,value
2023-05-14T16:03:28.140Z,24.20
2023-05-14T16:14:03.196Z,24.20
2023-05-14T16:24:37.917Z,24.30
2023-05-14T16:35:12.778Z,24.00
2023-05-14T16:45:47.221Z,23.90
2023-05-14T16:56:22.711Z,23.20
2023-05-14T17:06:57.562Z,22.60
2023-05-14T17:17:32.939Z,21.90
2023-05-14T17:28:08.119Z,21.40
2023-05-14T17:38:42.955Z,21.20
2023-05-14T17:49:17.773Z,21.10
2023-05-14T17:59:52.755Z,20.80
2023-05-14T18:10:29.713Z,20.40
2023-05-14T18:21:04.383Z,19.90
2023-05-14T18:31:38.823Z,19.50
2023-05-14T18:42:13.863Z,19.10
2023-05-14T18:52:48.279Z,18.70
2023-05-14T19:03:23.085Z,18.50
2023-05-14T19:13:57.694Z,18.20
2023-05-14T19:24:32.564Z,18.00
2023-05-14T19:35:07.432Z,17.70
2023-05-14T19:45:42.845Z,17.60
2023-05-14T19:56:17.855Z,17.40
2023-05-14T20:06:52.970Z,17.30
2023-05-14T20:17:27.444Z,17.00
2023-05-14T20:28:02.208Z,16.70
2023-05-14T20:38:37.374Z,16.40
2023-05-14T20:49:11.934Z,16.00
2023-05-14T20:59:47.751Z,15.80
2023-05-14T21:10:22.366Z,15.70
2023-05-14T21:20:57.460Z,15.30
2023-05-14T21:31:32.435Z,15.10
2023-05-14T21:42:07.652Z,15.00
2023-05-14T21:52:42.417Z,14.60
2023-05-14T22:03:17.447Z,14.50
2023-05-14T22:13:52.077Z,14.30
2023-05-14T22:24:26.827Z,14.10
2023-05-14T22:35:02.190Z,14.00
2023-05-14T22:45:37.004Z,13.80
2023-05-14T22:56:11.761Z,13.60
2023-05-14T23:06:46.710Z,13.50
2023-05-14T23:17:21.229Z,13.10
2023-05-14T23:27:56.052Z,13.20
2023-05-14T23:38:30.937Z,13.00
2023-05-14T23:49:05.883Z,12.90
2023-05-14T23:59:40.898Z,12.80
